• Join FlightAware (Why Join?)
  • Login
  • US Flag 
03:17AM EST


 

Airport Tracker/Info


-or-


 

Live Flight TrackerFlight Track Log ✈ VH-RUT ✈ 14-Nov-2013 ✈ YBCG / OOL - YHBA / HVB

Flight Track Log - Related Links

Times and Time Zones

All times are in EST time to prevent confusion due to time zone crossing. See the VH-RUT flight status page for this flight to view local times or setup timezone preferences in your user account.

Time Position Orientation Groundspeed Altitude Reporting Facility
EST Latitude Longitude Course Direction KTS MPH feet Rate Location/Type
03:43PM -28.1451 153.4945 344° North 80 92 600  Level Aus ATC (RADAR)
03:43PM -28.1246 153.4880 344° North 114 131 400 -120 Descending Aus ATC (RADAR)
03:44PM -28.1066 153.4795 337° Northwest 120 138 500 60 Climbing Aus ATC (RADAR)
03:45PM -28.0890 153.4707 336° Northwest 118 136 500  Level Aus ATC (RADAR)
03:45PM -28.0693 153.4608 336° Northwest 114 131 500  Level Aus ATC (RADAR)
03:47PM -28.0252 153.4478 346° North 115 132 600  Climbing Aus ATC (RADAR)
03:47PM -28.0117 153.4443 347° North 119 137 600 -240 Level Aus ATC (RADAR)
03:48PM -27.9916 153.4411 352° North 124 143 400 -120 Descending Aus ATC (RADAR)
03:48PM -27.9698 153.4363 349° North 119 137 500 60 Climbing Aus ATC (RADAR)
03:49PM -27.9570 153.4196 311° West 117 135 500  Level Aus ATC (RADAR)
03:49PM -27.9375 153.4189 358° North 119 137 500 60 Level Aus ATC (RADAR)
03:50PM -27.9190 153.4212 North 116 133 600  Climbing Aus ATC (RADAR)
03:52PM -27.8693 153.4198 358° North 120 138 500  Descending Aus ATC (RADAR)
03:52PM -27.8507 153.4161 350° North 116 133 600 60 Climbing Aus ATC (RADAR)
03:52PM -27.8424 153.4142 349° North 118 136 600 -180 Level Aus ATC (RADAR)
03:53PM -27.8229 153.4126 356° North 122 140 500  Descending Aus ATC (RADAR)
03:54PM -27.8009 153.4103 355° North 118 136 600  Climbing Aus ATC (RADAR)
03:54PM -27.7817 153.4069 351° North 119 137 500  Descending Aus ATC (RADAR)
03:55PM -27.7624 153.4039 352° North 119 137 600 60 Climbing Aus ATC (RADAR)
03:55PM -27.7405 153.3993 349° North 118 136 600  Level Aus ATC (RADAR)
03:57PM -27.6901 153.3967 357° North 120 138 600  Level Aus ATC (RADAR)
03:57PM -27.6761 153.3974 North 120 138 600  Level Aus ATC (RADAR)
03:58PM -27.6566 153.3976 North 119 137 600  Level Aus ATC (RADAR)
03:59PM -27.6341 153.3979 North 121 139 600  Level Aus ATC (RADAR)
03:59PM -27.6142 153.3991 North 123 142 600 -120 Level Aus ATC (RADAR)
04:00PM -27.5948 153.3996 North 120 138 500 -180 Descending Aus ATC (RADAR)
04:00PM -27.5749 153.3995 360° North 123 142 400 60 Descending Aus ATC (RADAR)
04:02PM -27.5165 153.3958 357° North 117 135 700 120 Climbing Aus ATC (RADAR)
04:03PM -27.5029 153.3946 356° North 117 135 700 -240 Level Aus ATC (RADAR)
04:03PM -27.4828 153.3930 356° North 124 143 500 -180 Descending Aus ATC (RADAR)
04:04PM -27.4601 153.3915 357° North 123 142 500  Level Aus ATC (RADAR)
04:04PM -27.4402 153.3894 355° North 122 140 500  Level Aus ATC (RADAR)
04:05PM -27.4206 153.3879 356° North 121 139 500 60 Level Aus ATC (RADAR)
04:06PM -27.4012 153.3859 355° North 120 138 600  Climbing Aus ATC (RADAR)
04:07PM -27.3564 153.3826 356° North 121 139 600  Level Aus ATC (RADAR)
04:07PM -27.3392 153.3798 352° North 124 143 600  Level Aus ATC (RADAR)
04:08PM -27.3228 153.3770 351° North 121 139 600  Level Aus ATC (RADAR)
04:09PM -27.2977 153.3742 354° North 122 140 600  Level Aus ATC (RADAR)
04:09PM -27.2782 153.3715 353° North 121 139 600 -120 Level Aus ATC (RADAR)
04:10PM -27.2588 153.3688 353° North 120 138 500 -120 Descending Aus ATC (RADAR)
04:10PM -27.2404 153.3650 350° North 115 132 500  Level Aus ATC (RADAR)
04:12PM -27.1977 153.3612 355° North 115 132 500  Level Aus ATC (RADAR)
04:12PM -27.1868 153.3621 North 116 133 500  Level Aus ATC (RADAR)
04:12PM -27.1737 153.3634 North 114 131 500  Level Aus ATC (RADAR)
04:13PM -27.1553 153.3615 355° North 114 131 500 60 Level Aus ATC (RADAR)
04:14PM -27.1332 153.3560 347° North 107 123 600 60 Climbing Aus ATC (RADAR)
04:14PM -27.1183 153.3449 326° Northwest 107 123 600  Level Aus ATC (RADAR)
04:15PM -27.0971 153.3328 333° Northwest 113 130 600  Level Aus ATC (RADAR)
04:16PM -27.0849 153.3283 342° North 111 128 600  Level Aus ATC (RADAR)
04:17PM -27.0442 153.3173 347° North 113 130 600  Level Aus ATC (RADAR)
04:17PM -27.0340 153.3136 342° North 114 131 600  Level Aus ATC (RADAR)
04:18PM -27.0215 153.3088 341° North 114 131 600  Level Aus ATC (RADAR)
04:18PM -27.0045 153.2995 334° Northwest 115 132 600  Level Aus ATC (RADAR)
04:19PM -26.9809 153.2849 331° Northwest 114 131 600  Level Aus ATC (RADAR)
04:20PM -26.9641 153.2749 332° Northwest 116 133 600  Level Aus ATC (RADAR)
04:20PM -26.9424 153.2606 330° Northwest 120 138 600 -120 Level Aus ATC (RADAR)
04:21PM -26.9308 153.2524 328° Northwest 118 136 500  Descending Aus ATC (RADAR)
04:22PM -26.8845 153.2212 329° Northwest 116 133 600  Climbing Aus ATC (RADAR)
04:23PM -26.8749 153.2153 332° Northwest 118 136 500  Descending Aus ATC (RADAR)
04:23PM -26.8569 153.2062 336° Northwest 120 138 600  Climbing Aus ATC (RADAR)
04:24PM -26.8333 153.1956 338° Northwest 121 139 500  Descending Aus ATC (RADAR)
04:25PM -26.8146 153.1890 343° North 120 138 600 60 Climbing Aus ATC (RADAR)
04:25PM -26.7963 153.1818 340° North 119 137 600  Level Aus ATC (RADAR)
04:26PM -26.7782 153.1742 340° North 118 136 600  Level Aus ATC (RADAR)
04:27PM -26.7329 153.1601 344° North 119 137 600  Level Aus ATC (RADAR)
04:28PM -26.7170 153.1548 344° North 119 137 600  Level Aus ATC (RADAR)
04:28PM -26.6985 153.1490 344° North 118 136 600  Level Aus ATC (RADAR)
04:29PM -26.6744 153.1417 345° North 120 138 600  Level Aus ATC (RADAR)
04:30PM -26.6553 153.1372 348° North 120 138 600  Level Aus ATC (RADAR)
04:30PM -26.6310 153.1319 349° North 118 136 600 60 Level Aus ATC (RADAR)
04:31PM -26.6175 153.1310 356° North 116 133 700  Climbing Aus ATC (RADAR)
04:32PM -26.5713 153.1293 358° North 117 135 700 -60 Level Aus ATC (RADAR)
04:33PM -26.5604 153.1290 359° North 117 135 600 -180 Descending Aus ATC (RADAR)
04:33PM -26.5465 153.1291 360° North 119 137 600  Level Aus ATC (RADAR)
04:34PM -26.5274 153.1288 359° North 117 135 600 -180 Level Aus ATC (RADAR)
04:34PM -26.5001 153.1283 359° North 118 136 400 -240 Descending Aus ATC (RADAR)
04:37PM -26.4263 153.1126 349° North -180 Descending Aus ATC (Calculated)
04:39PM -26.4172 153.1107 349° North  Level Estimated
04:40PM -26.4083 153.1088 349° North  Level Estimated
04:41PM -26.3995 153.1069 349° North  Level Estimated
04:42PM -26.3907 153.1051 349° North  Level Estimated
04:43PM -26.3818 153.1032 349° North  Level Estimated
04:44PM -26.3730 153.1013 349° North  Level Estimated
04:44PM -26.2187 153.0687 169° South  Level Aus ATC (Calculated)
04:45PM -26.3641 153.0995 349° North  Level Estimated
04:46PM -26.2052 153.0659 349° North  Level Estimated
04:47PM -26.1963 153.0640 349° North  Level Estimated
04:48PM -26.1875 153.0621 349° North  Level Estimated
04:49PM -26.1786 153.0603 349° North  Level Estimated
04:50PM -26.1698 153.0584 349° North  Level Estimated
04:51PM -26.1610 153.0566 349° North  Level Estimated
04:52PM -26.1521 153.0547 349° North  Level Estimated
04:53PM -26.1433 153.0529 349° North  Level Estimated
04:54PM -26.1344 153.0510 349° North  Level Estimated
04:55PM -26.1256 153.0491 349° North  Level Estimated
04:56PM -26.1168 153.0473 349° North  Level Estimated
04:57PM -26.1079 153.0454 349° North  Level Estimated
04:58PM -26.0991 153.0435 349° North  Level Estimated
04:59PM -26.0902 153.0417 349° North  Level Estimated
05:00PM -26.0814 153.0398 349° North  Level Estimated
05:01PM -26.0726 153.0380 349° North  Level Estimated
05:02PM -26.0637 153.0361 349° North  Level Estimated
05:03PM -26.0549 153.0343 349° North  Level Estimated
05:04PM -26.0460 153.0324 349° North  Level Estimated
05:05PM -26.0372 153.0305 349° North  Level Estimated
05:06PM -26.0284 153.0287 349° North  Level Estimated
05:07PM -26.0195 153.0268 349° North  Level Estimated
05:08PM -26.0107 153.0249 349° North  Level Estimated
05:09PM -26.0018 153.0231 349° North  Level Estimated
05:10PM -25.9930 153.0212 349° North  Level Estimated
05:11PM -25.9842 153.0194 349° North  Level Estimated
05:12PM -25.9753 153.0175 349° North  Level Estimated
05:13PM -25.9665 153.0157 349° North  Level Estimated
05:14PM -25.9576 153.0138 349° North  Level Estimated
05:15PM -25.9488 153.0119 349° North  Level Estimated
05:16PM -25.9400 153.0101 349° North  Level Estimated
05:17PM -25.9311 153.0082 349° North  Level Estimated
05:18PM -25.9223 153.0063 349° North  Level Estimated